Time;durP1;ratioP1;P1;durP2;ratioP2;P2;SDS_P1;SDS_P2;PMS_P1;PMS_P2;Temp;Humidity;BMP_temperature;BMP_pressure;BME280_temperature;BME280_humidity;BME280_pressure;Samples;Min_cycle;Max_cycle;Signal;HPM_P1;HPM_P2
2023/12/25 00:01:40;;;;;;;2.10;0.30;;;;;;;12.06;100.00;99360.91;5032768;27;101892;-77
2023/12/25 00:04:06;;;;;;;1.52;0.60;;;;;;;11.73;100.00;99385.00;5040273;27;98837;-77
2023/12/25 00:06:32;;;;;;;2.08;0.22;;;;;;;11.76;100.00;99389.25;5029817;27;96731;-77
2023/12/25 00:08:59;;;;;;;2.55;0.30;;;;;;;12.18;100.00;99397.19;5014608;27;97405;-77
2023/12/25 00:11:25;;;;;;;1.33;0.32;;;;;;;12.31;100.00;99392.81;5032376;27;98916;-77
2023/12/25 00:13:54;;;;;;;2.25;0.50;;;;;;;11.92;100.00;99390.03;5033482;27;98034;-77
2023/12/25 00:16:25;;;;;;;5.25;0.80;;;;;;;11.77;100.00;99367.16;5032221;27;96790;-77
2023/12/25 00:18:52;;;;;;;2.35;0.28;;;;;;;12.17;100.00;99366.34;5032234;27;97072;-76
2023/12/25 00:21:19;;;;;;;3.88;0.38;;;;;;;12.02;100.00;99367.31;5032532;27;98918;-77
2023/12/25 00:23:45;;;;;;;2.53;0.30;;;;;;;11.97;100.00;99367.63;5032783;27;97850;-77
2023/12/25 00:26:12;;;;;;;2.92;0.45;;;;;;;11.85;100.00;99375.47;5018697;27;96740;-77
2023/12/25 00:28:38;;;;;;;3.03;0.60;;;;;;;12.15;100.00;99385.94;5032903;27;97030;-77
2023/12/25 00:31:05;;;;;;;2.65;0.47;;;;;;;12.33;100.00;99390.94;5032751;27;99201;-77
2023/12/25 00:33:32;;;;;;;0.60;0.38;;;;;;;12.10;100.00;99378.28;5035743;27;98799;-77
2023/12/25 00:35:59;;;;;;;2.20;0.40;;;;;;;12.06;100.00;99387.38;5039531;27;97404;-77
2023/12/25 00:38:25;;;;;;;7.70;0.73;;;;;;;11.74;100.00;99384.09;5045869;27;97478;-77
2023/12/25 00:40:51;;;;;;;6.82;2.30;;;;;;;11.96;100.00;99371.19;5036779;27;99003;-77
2023/12/25 00:43:18;;;;;;;3.22;0.43;;;;;;;12.10;100.00;99374.78;5044417;27;96889;-77
2023/12/25 00:45:44;;;;;;;2.85;0.40;;;;;;;11.77;100.00;99383.03;5031226;27;96848;-77
2023/12/25 00:48:10;;;;;;;4.00;0.47;;;;;;;11.77;100.00;99380.38;5034573;27;97258;-77
2023/12/25 00:50:38;;;;;;;6.13;0.50;;;;;;;11.90;100.00;99389.25;5028796;27;99254;-77
2023/12/25 00:53:04;;;;;;;3.03;0.40;;;;;;;11.85;100.00;99405.44;5032409;27;98194;-77
2023/12/25 00:55:31;;;;;;;2.60;0.40;;;;;;;11.94;100.00;99393.44;5031765;27;96879;-76
2023/12/25 00:57:58;;;;;;;2.10;0.47;;;;;;;12.14;100.00;99395.66;5023880;27;96872;-75
2023/12/25 01:00:24;;;;;;;3.35;0.40;;;;;;;11.89;100.00;99396.34;5030980;27;99042;-76
2023/12/25 01:02:51;;;;;;;5.50;0.70;;;;;;;11.90;100.00;99402.50;5023542;27;98974;-76
2023/12/25 01:05:17;;;;;;;11.55;2.30;;;;;;;11.93;100.00;99403.19;5030598;27;97230;-76
2023/12/25 01:07:45;;;;;;;4.30;0.40;;;;;;;12.19;100.00;99406.84;5032811;27;96855;-77
2023/12/25 01:10:11;;;;;;;2.50;0.90;;;;;;;12.16;100.00;99400.88;5031498;27;97676;-77
2023/12/25 01:12:37;;;;;;;2.65;0.77;;;;;;;11.76;100.00;99408.66;5031598;27;98162;-76
2023/12/25 01:15:05;;;;;;;2.08;0.50;;;;;;;11.58;100.00;99410.59;5031262;27;97227;-76
2023/12/25 01:17:31;;;;;;;1.95;0.65;;;;;;;11.85;100.00;99420.47;5031801;27;96861;-77
2023/12/25 01:19:58;;;;;;;2.90;0.45;;;;;;;12.42;100.00;99417.75;5023050;27;98965;-77
2023/12/25 01:22:24;;;;;;;5.47;0.80;;;;;;;12.18;100.00;99418.38;5031548;27;98724;-76
2023/12/25 01:24:52;;;;;;;5.18;0.70;;;;;;;12.04;100.00;99420.19;5026343;27;97283;-77
2023/12/25 01:27:18;;;;;;;4.35;0.70;;;;;;;12.09;100.00;99418.09;5031228;27;97095;-77
2023/12/25 01:29:45;;;;;;;4.82;1.05;;;;;;;12.25;100.00;99432.94;5031273;27;99343;-76
2023/12/25 01:32:11;;;;;;;8.70;0.60;;;;;;;12.19;100.00;99420.09;5030968;27;98911;-77
2023/12/25 01:34:37;;;;;;;6.20;1.17;;;;;;;12.23;100.00;99408.34;5022378;27;96686;-77
2023/12/25 01:37:04;;;;;;;3.28;0.85;;;;;;;12.32;100.00;99409.56;5030113;27;97247;-77
2023/12/25 01:39:30;;;;;;;7.70;0.98;;;;;;;12.17;100.00;99398.13;5018325;27;97724;-77
2023/12/25 01:41:58;;;;;;;5.13;0.90;;;;;;;12.19;100.00;99390.94;5034147;27;102591;-76
2023/12/25 01:44:24;;;;;;;4.32;0.68;;;;;;;12.32;100.00;99401.63;5023655;27;97244;-77
2023/12/25 01:46:51;;;;;;;6.22;0.70;;;;;;;12.27;100.00;99401.06;5030694;27;96829;-78
2023/12/25 01:49:17;;;;;;;3.67;0.47;;;;;;;12.15;100.00;99400.03;5030554;27;99265;-77
2023/12/25 01:51:44;;;;;;;7.05;0.98;;;;;;;12.32;100.00;99409.56;5032190;27;98103;-77
2023/12/25 01:54:10;;;;;;;6.45;1.02;;;;;;;12.19;100.00;99428.03;5031227;27;96760;-77
2023/12/25 01:56:36;;;;;;;8.60;0.88;;;;;;;12.31;100.00;99427.25;5016935;27;97428;-77
2023/12/25 01:59:04;;;;;;;3.90;0.63;;;;;;;12.23;100.00;99429.53;5029365;27;99296;-77
2023/12/25 02:01:30;;;;;;;6.13;0.80;;;;;;;12.52;100.00;99429.47;5030862;27;98884;-76
2023/12/25 02:03:57;;;;;;;2.78;0.70;;;;;;;12.60;100.00;99429.84;5020168;27;96934;-77
2023/12/25 02:06:24;;;;;;;7.38;0.90;;;;;;;12.68;100.00;99424.88;5022515;27;97015;-77
2023/12/25 02:08:51;;;;;;;2.08;0.38;;;;;;;12.32;100.00;99431.59;5022619;27;98855;-77
2023/12/25 02:11:17;;;;;;;5.57;0.75;;;;;;;12.37;100.00;99429.50;5030820;27;98906;-77
2023/12/25 02:13:43;;;;;;;3.17;0.60;;;;;;;12.42;100.00;99431.84;5030428;27;97042;-77
2023/12/25 02:16:12;;;;;;;3.35;0.60;;;;;;;12.42;100.00;99423.91;5036269;27;97224;-77
2023/12/25 02:18:38;;;;;;;4.50;0.70;;;;;;;12.43;100.00;99428.25;5029991;27;98952;-76
2023/12/25 02:21:05;;;;;;;6.78;0.98;;;;;;;12.72;100.00;99435.19;5030861;27;97472;-76
2023/12/25 02:23:35;;;;;;;3.17;0.63;;;;;;;12.64;100.00;99429.53;5028548;27;97709;-76
2023/12/25 02:26:04;;;;;;;5.28;0.70;;;;;;;12.66;100.00;99421.50;5029802;27;97264;-76
2023/12/25 02:28:30;;;;;;;7.95;1.33;;;;;;;11.78;100.00;99413.84;5028057;27;99063;-76
2023/12/25 02:30:58;;;;;;;7.85;1.60;;;;;;;11.80;100.00;99411.97;5027219;27;98956;-76
2023/12/25 02:33:24;;;;;;;2.38;0.60;;;;;;;12.06;100.00;99429.75;5022562;27;96713;-76
2023/12/25 02:35:50;;;;;;;6.15;1.17;;;;;;;12.08;100.00;99424.34;5030510;27;96901;-76
2023/12/25 02:38:17;;;;;;;4.97;0.70;;;;;;;12.08;100.00;99422.53;5029911;27;99033;-76
2023/12/25 02:40:44;;;;;;;4.85;1.15;;;;;;;12.40;100.00;99417.03;5031181;27;98783;-77
2023/12/25 02:43:11;;;;;;;6.40;1.05;;;;;;;12.59;99.08;99429.00;5031314;27;97333;-76
2023/12/25 02:45:38;;;;;;;5.97;0.65;;;;;;;12.36;99.76;99421.66;5023608;27;96766;-77
2023/12/25 02:48:05;;;;;;;6.55;0.60;;;;;;;12.30;100.00;99435.28;5033272;27;98224;-77
2023/12/25 02:50:31;;;;;;;5.05;0.70;;;;;;;12.60;100.00;99432.50;5031191;27;99209;-77
2023/12/25 02:52:57;;;;;;;2.92;0.70;;;;;;;12.45;99.48;99425.53;5026415;27;96703;-77
2023/12/25 02:55:25;;;;;;;4.18;0.80;;;;;;;12.23;100.00;99429.53;5033660;27;96877;-77
2023/12/25 02:57:51;;;;;;;2.65;0.57;;;;;;;12.45;99.52;99421.06;5031148;27;101911;-77
2023/12/25 03:00:19;;;;;;;6.45;1.50;;;;;;;12.68;98.59;99431.03;5033428;27;98760;-77
2023/12/25 03:02:46;;;;;;;3.92;0.45;;;;;;;12.64;98.10;99426.88;5033358;27;96988;-77
2023/12/25 03:05:12;;;;;;;4.63;0.60;;;;;;;12.33;100.00;99441.25;5033454;27;96763;-76
2023/12/25 03:07:38;;;;;;;1.55;0.45;;;;;;;12.04;100.00;99442.22;5033838;27;99115;-77
2023/12/25 03:10:06;;;;;;;2.97;0.73;;;;;;;11.99;100.00;99436.34;5029493;27;99616;-76
2023/12/25 03:12:32;;;;;;;1.38;0.52;;;;;;;12.10;100.00;99441.81;5033652;27;96779;-77
2023/12/25 03:14:58;;;;;;;3.85;0.60;;;;;;;12.28;100.00;99438.03;5034833;27;97760;-76
2023/12/25 03:17:26;;;;;;;6.60;0.68;;;;;;;12.45;100.00;99452.88;5032581;27;98953;-76
2023/12/25 03:19:52;;;;;;;4.53;0.90;;;;;;;12.24;100.00;99443.63;5032921;27;101790;-76
2023/12/25 03:22:19;;;;;;;5.72;0.70;;;;;;;12.05;100.00;99457.16;5033060;27;96882;-76
2023/12/25 03:24:45;;;;;;;3.53;0.70;;;;;;;11.98;100.00;99432.84;5039933;27;96999;-76
2023/12/25 03:27:11;;;;;;;3.35;0.82;;;;;;;11.94;100.00;99441.09;5023208;27;99143;-77
2023/12/25 03:29:38;;;;;;;5.03;0.50;;;;;;;11.83;100.00;99443.53;5032511;27;99310;-77
2023/12/25 03:32:05;;;;;;;4.15;0.77;;;;;;;11.94;100.00;99456.97;5033579;27;97105;-77
2023/12/25 03:34:33;;;;;;;2.45;0.60;;;;;;;11.93;100.00;99442.03;5033863;27;97131;-77
2023/12/25 03:36:59;;;;;;;3.42;0.55;;;;;;;11.76;100.00;99442.19;5032229;27;99078;-77
2023/12/25 03:39:25;;;;;;;5.25;0.70;;;;;;;11.57;100.00;99439.78;5032060;27;98984;-76
2023/12/25 03:41:52;;;;;;;1.23;0.50;;;;;;;11.64;100.00;99437.63;5033086;27;96781;-76
2023/12/25 03:44:19;;;;;;;4.82;0.70;;;;;;;11.64;100.00;99438.47;5043336;27;97425;-77
2023/12/25 03:46:45;;;;;;;7.32;0.75;;;;;;;11.83;100.00;99446.16;5024029;27;98963;-77
2023/12/25 03:49:12;;;;;;;2.22;0.55;;;;;;;12.20;100.00;99453.56;5032199;27;99201;-77
2023/12/25 03:51:39;;;;;;;5.28;0.90;;;;;;;12.02;100.00;99452.03;5022096;27;97203;-76
2023/12/25 03:54:06;;;;;;;4.75;0.60;;;;;;;11.70;100.00;99447.81;5035083;27;96836;-77
2023/12/25 03:56:32;;;;;;;1.92;0.40;;;;;;;11.69;100.00;99454.06;5036607;27;99249;-76
2023/12/25 03:58:58;;;;;;;3.67;0.55;;;;;;;11.86;100.00;99448.66;5029968;27;98985;-77
2023/12/25 04:01:25;;;;;;;5.25;0.70;;;;;;;11.53;100.00;99452.34;5032885;27;96788;-76
2023/12/25 04:03:51;;;;;;;3.42;0.50;;;;;;;11.54;100.00;99459.34;5033313;27;96740;-77
2023/12/25 04:06:24;;;;;;;6.10;0.65;;;;;;;11.90;100.00;99445.72;5023948;27;98924;-77
2023/12/25 04:08:52;;;;;;;3.10;0.68;;;;;;;12.32;100.00;99433.41;5030056;27;98194;-77
2023/12/25 04:11:20;;;;;;;5.43;0.70;;;;;;;11.78;100.00;99440.31;5035505;27;96805;-77
2023/12/25 04:13:46;;;;;;;4.20;0.80;;;;;;;11.63;100.00;99439.41;5033527;27;98173;-78
2023/12/25 04:16:19;;;;;;;4.72;0.75;;;;;;;11.85;100.00;99457.53;5032204;27;99085;-78
2023/12/25 04:18:46;;;;;;;3.25;0.55;;;;;;;11.87;100.00;99445.91;5031651;27;99328;-77
2023/12/25 04:21:21;;;;;;;4.90;0.75;;;;;;;11.92;100.00;99443.81;5032676;27;97137;-77
2023/12/25 04:23:47;;;;;;;3.70;0.63;;;;;;;12.15;100.00;99442.38;5033343;27;96888;-77
2023/12/25 04:26:15;;;;;;;4.35;0.70;;;;;;;12.14;100.00;99440.69;5031313;27;98642;-77
2023/12/25 04:28:41;;;;;;;3.45;1.45;;;;;;;12.30;100.00;99443.22;5025525;27;99601;-77
2023/12/25 04:31:08;;;;;;;6.28;0.77;;;;;;;12.58;100.00;99442.34;5032758;27;96771;-76
2023/12/25 04:33:34;;;;;;;4.63;0.73;;;;;;;12.51;100.00;99431.28;5032691;27;97226;-77
2023/12/25 04:36:00;;;;;;;2.08;0.57;;;;;;;12.24;100.00;99433.03;5032551;27;98523;-77
2023/12/25 04:38:27;;;;;;;3.35;0.60;;;;;;;12.18;100.00;99436.06;5025026;27;100524;-77
2023/12/25 04:40:53;;;;;;;1.70;0.50;;;;;;;12.35;100.00;99438.47;5027784;27;96793;-77
2023/12/25 04:43:21;;;;;;;5.50;0.93;;;;;;;12.44;100.00;99435.25;5035003;27;96816;-77
2023/12/25 04:45:47;;;;;;;5.25;0.70;;;;;;;12.23;100.00;99456.00;5032154;27;97517;-77
2023/12/25 04:48:13;;;;;;;4.07;0.88;;;;;;;12.28;100.00;99461.00;5028951;27;98711;-77
2023/12/25 04:50:40;;;;;;;1.88;0.52;;;;;;;12.31;100.00;99451.09;5022218;27;96809;-77
2023/12/25 04:53:06;;;;;;;4.38;0.68;;;;;;;12.15;100.00;99460.06;5033118;27;96904;-77
2023/12/25 04:55:33;;;;;;;3.33;0.40;;;;;;;12.25;100.00;99447.97;5031375;27;97688;-76
2023/12/25 04:57:59;;;;;;;1.00;0.45;;;;;;;12.50;98.43;99434.00;5020677;27;99470;-77
2023/12/25 05:00:27;;;;;;;4.10;0.65;;;;;;;12.13;99.31;99424.91;5034471;27;96851;-76
2023/12/25 05:02:54;;;;;;;2.17;0.40;;;;;;;11.97;98.78;99431.16;5026201;27;97171;-76
2023/12/25 05:05:20;;;;;;;2.67;0.60;;;;;;;12.14;99.12;99427.44;5029933;27;99014;-76
2023/12/25 05:07:46;;;;;;;2.25;0.40;;;;;;;12.37;97.90;99428.66;5027115;27;98907;-76
2023/12/25 05:10:13;;;;;;;2.35;0.40;;;;;;;12.43;97.36;99430.91;5030834;27;97093;-77
2023/12/25 05:12:39;;;;;;;4.13;0.68;;;;;;;12.49;97.68;99425.22;5024314;27;96763;-76
2023/12/25 05:15:07;;;;;;;3.92;0.52;;;;;;;12.72;95.97;99429.91;5031236;27;99004;-77
2023/12/25 05:17:34;;;;;;;0.90;0.40;;;;;;;12.84;95.90;99443.28;5017283;27;97605;-77
2023/12/25 05:20:01;;;;;;;8.57;1.15;;;;;;;12.84;96.09;99438.84;5027023;27;96830;-76
2023/12/25 05:22:27;;;;;;;4.25;0.45;;;;;;;12.77;95.54;99445.50;5032251;27;97208;-76
2023/12/25 05:24:53;;;;;;;2.17;0.60;;;;;;;12.76;95.81;99446.44;5031549;27;99138;-76
2023/12/25 05:27:20;;;;;;;2.92;0.55;;;;;;;12.81;95.25;99452.28;5020483;27;98965;-76
2023/12/25 05:29:46;;;;;;;7.18;0.65;;;;;;;12.90;95.70;99443.75;5030517;27;96679;-76
2023/12/25 05:32:12;;;;;;;5.90;0.73;;;;;;;12.68;95.68;99451.38;5024616;27;96941;-77
2023/12/25 05:34:40;;;;;;;4.53;0.70;;;;;;;12.62;96.88;99449.13;5028245;27;99314;-77
2023/12/25 05:37:06;;;;;;;3.53;0.60;;;;;;;12.35;98.09;99449.09;5029122;27;99041;-77
2023/12/25 05:39:33;;;;;;;2.65;0.50;;;;;;;12.41;97.19;99459.28;5030818;27;96787;-76
2023/12/25 05:41:59;;;;;;;3.15;0.40;;;;;;;12.56;96.05;99450.38;5031046;27;96834;-77
2023/12/25 05:44:25;;;;;;;3.47;0.55;;;;;;;12.67;94.74;99455.81;5030996;27;98902;-76
2023/12/25 05:46:51;;;;;;;3.85;0.57;;;;;;;12.64;94.99;99457.84;5025179;27;99240;-77
2023/12/25 05:49:18;;;;;;;4.28;0.70;;;;;;;12.75;93.26;99455.34;5025555;27;97009;-77
2023/12/25 05:51:45;;;;;;;4.32;0.80;;;;;;;12.72;93.34;99453.75;5030934;27;97227;-76
2023/12/25 05:54:12;;;;;;;6.78;0.90;;;;;;;12.63;93.42;99446.38;5030549;27;99272;-77
2023/12/25 05:56:37;;;;;;;5.38;0.90;;;;;;;12.56;92.95;99465.41;5024106;27;97987;-77
2023/12/25 05:59:04;;;;;;;;;;;;;;;12.58;92.08;99447.63;5031471;27;96793;-76
2023/12/25 06:01:31;;;;;;;1.70;0.50;;;;;;;12.31;92.62;99455.53;5018176;27;97290;-76
2023/12/25 06:03:58;;;;;;;1.60;0.50;;;;;;;12.33;93.16;99457.16;5030169;27;98917;-76
2023/12/25 06:06:25;;;;;;;5.85;1.20;;;;;;;12.92;90.58;99452.47;5029807;27;98800;-76
2023/12/25 06:08:53;;;;;;;2.88;0.60;;;;;;;13.06;89.58;99444.41;5030981;27;96843;-76
2023/12/25 06:11:19;;;;;;;4.38;0.70;;;;;;;12.88;89.58;99473.94;5031289;27;97347;-76
2023/12/25 06:13:46;;;;;;;4.45;0.93;;;;;;;12.80;90.27;99458.53;5031657;27;98313;-76
2023/12/25 06:16:12;;;;;;;5.95;0.90;;;;;;;12.62;90.04;99454.44;5021915;27;99317;-76
2023/12/25 06:18:38;;;;;;;3.30;1.08;;;;;;;12.62;89.87;99451.78;5025595;27;97254;-76
2023/12/25 06:21:05;;;;;;;5.35;0.93;;;;;;;12.64;89.25;99458.69;5038793;27;96767;-76
2023/12/25 06:23:31;;;;;;;4.68;0.80;;;;;;;12.29;90.43;99426.47;5017309;27;99389;-76
2023/12/25 06:25:59;;;;;;;3.60;1.10;;;;;;;12.32;91.24;99457.25;5023902;28;101449;-76
2023/12/25 06:28:26;;;;;;;7.55;1.00;;;;;;;12.67;89.89;99478.81;5020314;27;96965;-76
2023/12/25 06:30:52;;;;;;;4.50;1.00;;;;;;;12.76;89.29;99472.94;5034149;27;97108;-76
2023/12/25 06:33:19;;;;;;;4.55;1.50;;;;;;;12.93;87.52;99475.34;5028863;27;99512;-76
2023/12/25 06:35:45;;;;;;;3.08;0.65;;;;;;;12.90;86.45;99483.50;5030472;27;98866;-76
2023/12/25 06:38:13;;;;;;;2.92;0.80;;;;;;;12.63;88.63;99483.47;5030395;27;96928;-76
2023/12/25 06:40:39;;;;;;;4.15;0.73;;;;;;;12.80;89.18;99497.47;5024115;28;96771;-76
2023/12/25 06:43:07;;;;;;;2.55;0.60;;;;;;;13.06;86.33;99499.28;5036696;27;99403;-76
2023/12/25 06:45:34;;;;;;;3.60;0.88;;;;;;;13.26;86.25;99498.00;5037902;27;99251;-76
2023/12/25 06:48:00;;;;;;;4.75;0.98;;;;;;;12.79;87.03;99501.94;5030717;27;97148;-76
2023/12/25 06:50:27;;;;;;;6.60;1.27;;;;;;;12.61;89.67;99511.03;5028433;27;96841;-77
2023/12/25 06:52:52;;;;;;;6.18;1.02;;;;;;;13.12;86.72;99525.41;5023026;27;99628;-76
2023/12/25 06:55:18;;;;;;;;;;;;;;;12.94;87.09;99531.88;5022615;27;98920;-76
2023/12/25 06:57:45;;;;;;;6.40;0.90;;;;;;;12.86;87.81;99535.03;5031160;27;97124;-76
2023/12/25 07:00:14;;;;;;;5.55;0.88;;;;;;;12.57;88.86;99536.03;5029123;27;96823;-76
2023/12/25 07:02:41;;;;;;;6.55;0.80;;;;;;;12.63;88.86;99528.53;5020980;28;99014;-76
2023/12/25 07:05:08;;;;;;;6.35;1.17;;;;;;;12.52;88.64;99522.22;5030357;27;100715;-75
2023/12/25 07:07:35;;;;;;;5.05;1.13;;;;;;;12.29;89.14;99544.81;5022124;27;97023;-76
2023/12/25 07:10:02;;;;;;;2.40;0.63;;;;;;;12.54;87.84;99557.41;5030900;27;96737;-76
2023/12/25 07:12:33;;;;;;;6.95;0.90;;;;;;;12.78;85.55;99546.13;5021435;27;100943;-76
2023/12/25 07:15:00;;;;;;;5.93;1.25;;;;;;;13.28;83.39;99555.31;5022187;27;97936;-76
2023/12/25 07:17:28;;;;;;;5.15;0.70;;;;;;;13.62;81.52;99555.75;5030394;27;96990;-76
2023/12/25 07:19:54;;;;;;;4.22;1.08;;;;;;;13.46;81.56;99574.47;5038861;27;96750;-76
2023/12/25 07:22:21;;;;;;;2.58;0.77;;;;;;;13.27;81.75;99576.63;5022421;27;98928;-75
2023/12/25 07:24:48;;;;;;;5.70;0.70;;;;;;;12.72;82.98;99582.78;5023321;27;100169;-76
2023/12/25 07:27:14;;;;;;;5.72;0.77;;;;;;;12.76;84.75;99573.66;5030060;27;97571;-75
2023/12/25 07:29:41;;;;;;;9.95;1.27;;;;;;;13.34;82.41;99581.44;5027620;27;97434;-75
2023/12/25 07:32:08;;;;;;;4.25;0.93;;;;;;;12.70;83.62;99580.22;5028945;27;100663;-75
2023/12/25 07:34:36;;;;;;;5.05;0.88;;;;;;;12.79;83.29;99592.06;5032051;27;98911;-76
2023/12/25 07:37:03;;;;;;;4.38;0.73;;;;;;;12.98;82.49;99597.03;5033585;27;97262;-75
2023/12/25 07:39:30;;;;;;;4.05;0.80;;;;;;;13.21;81.85;99577.03;5033635;27;97327;-75
2023/12/25 07:41:57;;;;;;;4.40;1.00;;;;;;;12.95;81.72;99587.47;5038693;27;101281;-75
2023/12/25 07:44:23;;;;;;;3.63;0.98;;;;;;;12.47;82.40;99582.59;5035808;27;98889;-75
2023/12/25 07:46:50;;;;;;;5.05;1.02;;;;;;;12.66;82.37;99599.06;5032951;27;96961;-75
2023/12/25 07:49:17;;;;;;;4.75;0.90;;;;;;;12.57;81.91;99600.47;5033710;27;97104;-75
2023/12/25 07:51:45;;;;;;;5.30;0.88;;;;;;;12.46;82.52;99604.72;5032166;27;99079;-76
2023/12/25 07:54:12;;;;;;;6.75;0.88;;;;;;;12.60;80.42;99605.56;5026993;27;97356;-75
2023/12/25 07:56:38;;;;;;;7.55;0.80;;;;;;;12.81;80.44;99624.59;5032783;27;96800;-75
2023/12/25 07:59:04;;;;;;;7.15;0.80;;;;;;;12.61;80.61;99617.03;5032627;27;96887;-75
2023/12/25 08:01:31;;;;;;;8.38;1.23;;;;;;;12.55;81.36;99623.56;5021552;27;99174;-76
2023/12/25 08:03:57;;;;;;;3.67;0.88;;;;;;;12.71;79.12;99642.03;5032920;27;100410;-74
2023/12/25 08:06:23;;;;;;;2.83;0.77;;;;;;;12.88;78.62;99643.63;5033002;27;97277;-75
2023/12/25 08:08:51;;;;;;;4.20;0.65;;;;;;;12.96;78.01;99654.59;5032419;27;96906;-75
2023/12/25 08:11:18;;;;;;;4.40;0.60;;;;;;;12.96;77.19;99659.91;5023916;27;99229;-75
2023/12/25 08:13:44;;;;;;;7.18;0.70;;;;;;;13.29;75.46;99655.16;5032823;27;98907;-76
2023/12/25 08:16:11;;;;;;;5.28;0.88;;;;;;;12.51;77.68;99663.59;5032500;27;96908;-75
2023/12/25 08:18:37;;;;;;;4.00;1.02;;;;;;;13.26;75.12;99675.75;5026336;27;96872;-75
2023/12/25 08:21:04;;;;;;;2.40;0.80;;;;;;;12.77;74.32;99670.81;5029637;27;99140;-76
2023/12/25 08:23:34;;;;;;;5.93;1.25;;;;;;;12.67;75.23;99670.50;5022046;27;98829;-75
2023/12/25 08:26:02;;;;;;;4.90;0.77;;;;;;;12.66;74.62;99679.44;5040426;27;96746;-75
2023/12/25 08:28:29;;;;;;;4.68;0.60;;;;;;;12.80;73.58;99681.19;5031817;27;96825;-76
2023/12/25 08:30:56;;;;;;;9.40;0.85;;;;;;;12.85;73.61;99684.44;5022019;27;99906;-76
2023/12/25 08:33:22;;;;;;;3.92;1.40;;;;;;;12.21;75.94;99698.03;5031344;27;98897;-75
2023/12/25 08:35:50;;;;;;;6.97;1.77;;;;;;;12.58;74.88;99678.19;5028612;27;97159;-76
2023/12/25 08:38:16;;;;;;;2.45;0.63;;;;;;;12.65;75.12;99692.75;5032802;28;96769;-76
2023/12/25 08:40:46;;;;;;;6.45;1.00;;;;;;;12.65;75.26;99682.16;5022579;27;98888;-75
2023/12/25 08:43:13;;;;;;;4.57;0.90;;;;;;;12.41;76.11;99678.31;5024292;27;98817;-76
2023/12/25 08:45:40;;;;;;;6.07;0.65;;;;;;;12.89;75.69;99690.41;5019027;28;96745;-76
2023/12/25 08:48:07;;;;;;;4.40;0.73;;;;;;;13.61;72.26;99707.97;5012035;28;96816;-74
2023/12/25 08:50:33;;;;;;;7.70;1.98;;;;;;;13.67;71.74;99712.88;5034452;27;100974;-75
2023/12/25 08:53:00;;;;;;;3.88;0.73;;;;;;;12.69;75.06;99710.19;5026907;27;97680;-75
2023/12/25 08:55:26;;;;;;;5.18;0.63;;;;;;;13.08;74.66;99728.09;5032916;27;97204;-75
2023/12/25 08:57:52;;;;;;;4.38;1.13;;;;;;;13.38;73.04;99725.38;5027965;27;96821;-75
2023/12/25 09:00:21;;;;;;;5.60;0.85;;;;;;;13.49;72.89;99717.59;5025633;27;101519;-75
2023/12/25 09:02:47;;;;;;;9.55;1.20;;;;;;;13.96;71.54;99731.31;5018482;27;99225;-75
2023/12/25 09:05:14;;;;;;;10.10;1.05;;;;;;;13.82;71.28;99723.38;5031214;27;97287;-75
2023/12/25 09:07:40;;;;;;;5.35;0.98;;;;;;;13.74;70.91;99751.38;5027579;27;96768;-76
2023/12/25 09:10:07;;;;;;;5.50;0.73;;;;;;;13.27;73.46;99744.59;5027927;28;101810;-76
2023/12/25 09:12:34;;;;;;;7.80;1.00;;;;;;;13.19;73.53;99751.34;5024813;27;98113;-75
2023/12/25 09:15:01;;;;;;;4.32;0.75;;;;;;;12.87;74.91;99761.22;5031746;27;96737;-76
2023/12/25 09:17:28;;;;;;;3.92;0.80;;;;;;;13.12;73.97;99753.50;5030484;27;96835;-76
2023/12/25 09:19:55;;;;;;;6.97;1.50;;;;;;;13.20;72.73;99761.00;5027587;27;97067;-76
2023/12/25 09:22:24;;;;;;;4.85;0.80;;;;;;;12.98;73.38;99769.41;5030065;27;99598;-76
2023/12/25 09:24:52;;;;;;;6.45;1.00;;;;;;;12.90;73.58;99775.16;5033536;27;97212;-75
2023/12/25 09:27:19;;;;;;;6.00;0.90;;;;;;;13.49;71.62;99749.44;5031324;27;97277;-76
2023/12/25 09:29:45;;;;;;;7.78;1.58;;;;;;;13.29;71.58;99777.22;5031005;27;102814;-76
2023/12/25 09:32:11;;;;;;;7.18;1.27;;;;;;;13.37;71.58;99755.50;5025162;28;98857;-75
2023/12/25 09:34:39;;;;;;;7.95;0.93;;;;;;;13.83;70.04;99743.69;5030345;27;96750;-76
2023/12/25 09:37:05;;;;;;;6.55;1.00;;;;;;;13.63;70.74;99761.84;5026529;27;96776;-77
2023/12/25 09:39:32;;;;;;;7.75;1.30;;;;;;;13.96;69.27;99768.50;5026128;27;98774;-75
2023/12/25 09:41:58;;;;;;;4.18;0.73;;;;;;;13.57;70.22;99757.78;5030547;27;99616;-77
2023/12/25 09:44:26;;;;;;;5.93;0.80;;;;;;;13.10;73.00;99766.00;5030804;27;96783;-75
2023/12/25 09:46:53;;;;;;;8.00;1.02;;;;;;;13.76;71.10;99765.41;5022792;27;97002;-75
2023/12/25 09:49:21;;;;;;;4.07;1.08;;;;;;;14.02;69.77;99761.94;5030269;27;98821;-76
2023/12/25 09:51:51;;;;;;;4.93;0.82;;;;;;;14.26;68.91;99767.44;5030669;27;98453;-76
2023/12/25 09:54:17;;;;;;;5.32;1.15;;;;;;;14.12;68.99;99772.78;5027056;27;96756;-76
2023/12/25 09:56:44;;;;;;;8.32;1.58;;;;;;;14.29;67.85;99769.91;5029790;27;97252;-76
2023/12/25 09:59:11;;;;;;;5.72;1.17;;;;;;;14.44;67.81;99776.88;5029528;27;99029;-75
2023/12/25 10:01:39;;;;;;;8.85;1.05;;;;;;;14.36;67.10;99782.69;5027322;27;99559;-76
2023/12/25 10:04:05;;;;;;;6.05;1.20;;;;;;;13.50;71.13;99767.06;5025345;27;96640;-76
2023/12/25 10:06:32;;;;;;;7.95;1.17;;;;;;;13.44;71.08;99783.38;5030087;27;96730;-76
2023/12/25 10:09:00;;;;;;;6.88;1.05;;;;;;;14.03;68.74;99786.69;5030591;27;98346;-76
2023/12/25 10:11:26;;;;;;;5.05;1.02;;;;;;;13.54;70.44;99790.66;5029521;27;99008;-77
2023/12/25 10:13:53;;;;;;;6.13;1.05;;;;;;;13.11;72.78;99792.44;5031011;27;97054;-76
2023/12/25 10:16:20;;;;;;;7.10;1.55;;;;;;;13.35;71.96;99779.47;5030816;27;98327;-77
2023/12/25 10:18:48;;;;;;;5.20;0.80;;;;;;;13.23;72.13;99785.56;5030083;27;98938;-76
2023/12/25 10:21:14;;;;;;;3.10;0.70;;;;;;;13.40;71.68;99798.63;5026960;27;98033;-75
2023/12/25 10:23:41;;;;;;;8.82;1.10;;;;;;;13.46;71.73;99776.16;5022092;27;96795;-75
2023/12/25 10:26:09;;;;;;;6.40;1.10;;;;;;;13.32;72.93;99789.44;5029959;27;98222;-76
2023/12/25 10:28:35;;;;;;;10.77;3.60;;;;;;;13.48;71.36;99803.44;5030891;27;99206;-77
2023/12/25 10:31:03;;;;;;;3.88;0.77;;;;;;;13.92;70.51;99788.22;5028994;27;99364;-76
2023/12/25 10:33:30;;;;;;;7.72;1.50;;;;;;;13.91;69.90;99798.97;5030207;27;96698;-77
2023/12/25 10:36:05;;;;;;;9.20;1.40;;;;;;;13.70;70.39;99809.13;5027122;27;97307;-76
2023/12/25 10:38:34;;;;;;;4.78;1.02;;;;;;;13.89;69.51;99804.38;5028182;27;99319;-75
2023/12/25 10:41:21;;;;;;;5.70;1.00;;;;;;;13.19;72.21;99825.63;5029018;27;98224;-75
2023/12/25 10:43:52;;;;;;;5.40;1.13;;;;;;;13.30;72.63;99829.34;5025977;28;96871;-75
2023/12/25 10:46:21;;;;;;;5.72;1.15;;;;;;;13.14;73.01;99817.94;5028880;27;98365;-75
2023/12/25 10:48:50;;;;;;;3.88;1.02;;;;;;;13.04;73.47;99817.63;5029179;27;99082;-75
2023/12/25 10:51:21;;;;;;;3.33;0.80;;;;;;;12.62;74.96;99844.84;5029610;27;98119;-76
2023/12/25 10:53:50;;;;;;;8.50;1.35;;;;;;;13.31;73.61;99840.81;5029654;27;96864;-76
2023/12/25 10:56:18;;;;;;;6.95;1.40;;;;;;;13.46;71.89;99838.03;5029871;27;96923;-76
2023/12/25 10:58:48;;;;;;;7.30;2.47;;;;;;;13.87;70.26;99819.53;5028702;27;98919;-75
2023/12/25 11:01:16;;;;;;;7.65;1.25;;;;;;;13.95;69.31;99822.56;5022324;27;98857;-76
2023/12/25 11:03:43;;;;;;;6.15;1.27;;;;;;;14.11;68.62;99830.38;5028603;27;97942;-75
2023/12/25 11:06:10;;;;;;;9.57;1.15;;;;;;;13.87;69.94;99823.97;5026572;27;96854;-75
2023/12/25 11:08:36;;;;;;;10.18;1.02;;;;;;;13.69;71.47;99839.28;5030490;27;98975;-75
2023/12/25 11:11:02;;;;;;;9.90;1.00;;;;;;;14.02;69.30;99840.75;5032133;27;98865;-75
2023/12/25 11:13:31;;;;;;;8.02;0.80;;;;;;;13.62;70.81;99837.97;5032489;27;97126;-76
2023/12/25 11:15:59;;;;;;;11.82;2.10;;;;;;;14.08;69.16;99848.34;5033064;27;96768;-75
2023/12/25 11:18:26;;;;;;;4.20;0.93;;;;;;;14.33;67.47;99840.47;5032165;27;98967;-75
2023/12/25 11:21:06;;;;;;;7.97;1.15;;;;;;;14.86;65.82;99858.25;5023425;27;102482;-75
2023/12/25 11:23:34;;;;;;;4.53;1.13;;;;;;;14.26;66.96;99855.97;5033090;27;96826;-76
2023/12/25 11:26:00;;;;;;;7.55;1.23;;;;;;;14.40;67.37;99852.44;5025295;27;98308;-75
2023/12/25 11:28:27;;;;;;;3.00;1.05;;;;;;;14.05;68.54;99853.81;5032400;27;99004;-74